createdAt,value
2023-04-12T00:01:06.583Z,3.07
2023-04-12T00:03:34.569Z,3.13
2023-04-12T00:06:03.176Z,3.00
2023-04-12T00:08:33.288Z,3.10
2023-04-12T00:11:02.328Z,3.07
2023-04-12T00:13:30.347Z,3.10
2023-04-12T00:15:57.988Z,3.10
2023-04-12T00:18:25.893Z,3.10
2023-04-12T00:20:55.499Z,3.00
2023-04-12T00:23:22.504Z,3.00
2023-04-12T00:25:50.548Z,3.10
2023-04-12T00:28:18.138Z,3.00
2023-04-12T00:30:45.922Z,3.20
2023-04-12T00:33:13.429Z,3.17
2023-04-12T00:35:40.952Z,3.00
2023-04-12T00:38:10.595Z,3.00
2023-04-12T00:40:43.068Z,3.10
2023-04-12T00:43:18.651Z,3.00
2023-04-12T00:45:47.632Z,3.00
2023-04-12T00:48:18.923Z,3.00
2023-04-12T00:50:47.380Z,3.00
2023-04-12T00:53:15.581Z,3.10
2023-04-12T00:55:45.919Z,2.97
2023-04-12T00:58:14.676Z,3.00
2023-04-12T01:00:44.727Z,3.00
2023-04-12T01:03:13.785Z,2.90
2023-04-12T01:06:04.356Z,3.00
2023-04-12T01:09:20.504Z,3.00
2023-04-12T01:12:06.533Z,2.97
2023-04-12T01:15:07.641Z,2.97
2023-04-12T01:17:58.101Z,3.00
2023-04-12T01:20:37.331Z,2.93
2023-04-12T01:23:29.552Z,3.10
2023-04-12T01:26:15.696Z,3.00
2023-04-12T01:28:45.508Z,3.07
2023-04-12T01:31:14.991Z,3.00
2023-04-12T01:33:46.135Z,3.00
2023-04-12T01:36:21.588Z,3.00
2023-04-12T01:38:49.929Z,2.90
2023-04-12T01:41:17.894Z,3.00
2023-04-12T01:43:47.875Z,2.97
2023-04-12T01:46:22.989Z,2.93
2023-04-12T01:48:53.589Z,2.90
2023-04-12T01:52:09.919Z,2.97
2023-04-12T01:54:44.623Z,2.90
2023-04-12T01:57:13.192Z,2.90
2023-04-12T01:59:43.634Z,2.97
2023-04-12T02:02:13.172Z,2.80
2023-04-12T02:04:41.834Z,2.90
2023-04-12T02:07:09.551Z,3.00
2023-04-12T02:09:38.572Z,2.90
2023-04-12T02:12:07.496Z,2.97
2023-04-12T02:14:36.716Z,2.83
2023-04-12T02:17:04.640Z,2.93
2023-04-12T02:19:32.942Z,2.90
2023-04-12T02:22:00.911Z,2.83
2023-04-12T02:24:30.003Z,2.90
2023-04-12T02:26:59.397Z,2.93
2023-04-12T02:29:27.673Z,2.90
2023-04-12T02:31:54.805Z,2.90
2023-04-12T02:34:24.730Z,2.90
2023-04-12T02:36:59.956Z,2.83
2023-04-12T02:39:29.050Z,2.90
2023-04-12T02:41:56.891Z,3.00
2023-04-12T02:44:24.669Z,2.90
2023-04-12T02:47:10.935Z,2.97
2023-04-12T02:49:39.950Z,2.90
2023-04-12T02:52:08.753Z,2.90
2023-04-12T02:54:42.663Z,2.90
2023-04-12T02:57:16.089Z,2.90
2023-04-12T02:59:46.643Z,2.87
2023-04-12T03:02:23.044Z,2.90
2023-04-12T03:04:54.719Z,2.93
2023-04-12T03:07:28.058Z,2.90
2023-04-12T03:09:55.335Z,2.90
2023-04-12T03:12:24.943Z,2.90
2023-04-12T03:15:02.956Z,2.87
2023-04-12T03:17:29.975Z,2.93
2023-04-12T03:20:03.885Z,2.80
2023-04-12T03:22:32.110Z,2.83
2023-04-12T03:25:01.342Z,3.00
2023-04-12T03:27:28.975Z,3.00
2023-04-12T03:29:56.359Z,2.93
2023-04-12T03:32:25.598Z,2.90
2023-04-12T03:34:52.757Z,2.90
2023-04-12T03:37:25.388Z,2.93
2023-04-12T03:39:55.953Z,2.90
2023-04-12T03:42:33.149Z,3.10
2023-04-12T03:45:11.806Z,2.97
2023-04-12T03:47:42.552Z,2.90
2023-04-12T03:50:12.391Z,2.87
2023-04-12T03:52:45.458Z,2.93
2023-04-12T03:55:13.600Z,2.97
2023-04-12T03:57:41.852Z,2.90
2023-04-12T04:00:10.288Z,2.90
2023-04-12T04:03:03.134Z,2.90
2023-04-12T04:05:32.818Z,2.90
2023-04-12T04:08:02.130Z,2.90
2023-04-12T04:10:37.278Z,2.90
2023-04-12T04:13:04.823Z,2.90
2023-04-12T04:15:34.854Z,2.90
2023-04-12T04:18:03.786Z,3.10
2023-04-12T04:20:31.903Z,2.90
2023-04-12T04:22:59.456Z,2.87
2023-04-12T04:25:29.845Z,2.90
2023-04-12T04:28:02.563Z,2.90
2023-04-12T04:30:34.071Z,2.80
2023-04-12T04:33:02.684Z,2.90
2023-04-12T04:35:31.449Z,2.83
2023-04-12T04:38:15.649Z,2.87
2023-04-12T04:40:44.134Z,2.90
2023-04-12T04:43:13.779Z,2.90
2023-04-12T04:45:42.882Z,2.87
2023-04-12T04:48:10.964Z,2.93
2023-04-12T04:50:37.976Z,2.90
2023-04-12T04:53:05.690Z,2.87
2023-04-12T04:55:33.842Z,2.83
2023-04-12T04:58:01.733Z,2.90
2023-04-12T05:00:28.845Z,2.90
2023-04-12T05:02:58.466Z,2.90
2023-04-12T05:05:30.234Z,2.80
2023-04-12T05:08:10.715Z,2.90
2023-04-12T05:10:38.308Z,2.90
2023-04-12T05:13:05.938Z,2.90
2023-04-12T05:15:34.071Z,2.83
2023-04-12T05:18:01.956Z,2.87
2023-04-12T05:20:31.725Z,2.80
2023-04-12T05:22:58.898Z,2.87
2023-04-12T05:25:26.403Z,2.83
2023-04-12T05:28:02.841Z,2.87
2023-04-12T05:30:30.610Z,2.93
2023-04-12T05:32:58.871Z,2.90
2023-04-12T05:35:27.433Z,2.93
2023-04-12T05:37:59.330Z,2.80
2023-04-12T05:40:26.846Z,2.93
2023-04-12T05:42:55.686Z,2.80
2023-04-12T05:45:23.560Z,2.90
2023-04-12T05:47:51.068Z,2.87
2023-04-12T05:50:18.143Z,2.80
2023-04-12T05:52:45.303Z,2.90
2023-04-12T05:55:12.774Z,2.90
2023-04-12T05:57:41.676Z,2.80
2023-04-12T06:00:16.343Z,2.80
2023-04-12T06:02:50.491Z,2.77
2023-04-12T06:05:18.256Z,2.70
2023-04-12T06:07:49.253Z,2.80
2023-04-12T06:10:18.130Z,2.77
2023-04-12T06:12:49.128Z,2.77
2023-04-12T06:15:16.343Z,2.87
2023-04-12T06:17:44.011Z,2.90
2023-04-12T06:20:12.261Z,2.80
2023-04-12T06:22:40.596Z,2.90
2023-04-12T06:25:08.695Z,2.80
2023-04-12T06:27:36.218Z,2.80
2023-04-12T06:30:04.241Z,2.80
2023-04-12T06:32:38.516Z,2.80
2023-04-12T06:35:07.186Z,2.83
2023-04-12T06:37:34.897Z,2.80
2023-04-12T06:40:02.330Z,2.80
2023-04-12T06:42:29.352Z,2.80
2023-04-12T06:44:57.459Z,2.80
2023-04-12T06:47:25.540Z,2.80
2023-04-12T06:49:56.126Z,2.80
2023-04-12T06:52:27.109Z,2.83
2023-04-12T06:54:56.359Z,2.80
2023-04-12T06:57:23.647Z,2.73
2023-04-12T06:59:51.414Z,2.73
2023-04-12T07:02:18.699Z,2.80
2023-04-12T07:04:47.235Z,2.70
2023-04-12T07:07:15.317Z,2.73
2023-04-12T07:09:43.437Z,2.87
2023-04-12T07:12:10.843Z,2.80
2023-04-12T07:14:38.973Z,2.80
2023-04-12T07:17:06.620Z,2.80
2023-04-12T07:19:33.723Z,2.80
2023-04-12T07:22:00.930Z,2.80
2023-04-12T07:24:28.934Z,2.80
2023-04-12T07:26:56.488Z,2.80
2023-04-12T07:29:23.874Z,2.80
2023-04-12T07:31:51.022Z,2.83
2023-04-12T07:34:19.216Z,2.83
2023-04-12T07:36:46.334Z,2.80
2023-04-12T07:39:14.410Z,2.90
2023-04-12T07:41:46.233Z,2.77
2023-04-12T07:44:14.619Z,2.83
2023-04-12T07:46:42.607Z,2.80
2023-04-12T07:49:10.502Z,2.80
2023-04-12T07:51:37.793Z,2.77
2023-04-12T07:54:05.820Z,2.80
2023-04-12T07:56:35.520Z,2.80
2023-04-12T07:59:03.579Z,2.77
2023-04-12T08:03:42.163Z,2.77
2023-04-12T08:06:10.847Z,2.77
2023-04-12T08:08:38.404Z,2.80
2023-04-12T08:11:06.395Z,2.70
2023-04-12T08:13:35.805Z,2.70
2023-04-12T08:16:03.511Z,2.77
2023-04-12T08:18:31.136Z,2.87
2023-04-12T08:20:58.965Z,2.77
2023-04-12T08:23:27.606Z,2.70
2023-04-12T08:26:03.490Z,2.80
2023-04-12T08:28:31.759Z,2.70
2023-04-12T08:30:59.670Z,2.70
2023-04-12T08:33:27.447Z,2.63
2023-04-12T08:35:55.068Z,2.70
2023-04-12T08:38:28.013Z,2.70
2023-04-12T08:41:05.863Z,2.70
2023-04-12T08:43:34.780Z,2.73
2023-04-12T08:46:02.302Z,2.60
2023-04-12T08:48:30.373Z,2.77
2023-04-12T08:50:58.118Z,2.80
2023-04-12T08:53:25.781Z,2.80
2023-04-12T08:55:52.962Z,2.73
2023-04-12T08:58:21.120Z,2.77
2023-04-12T09:00:48.966Z,2.73
2023-04-12T09:03:16.223Z,2.70
2023-04-12T09:05:43.808Z,2.70
2023-04-12T09:08:11.974Z,2.80
2023-04-12T09:10:39.515Z,2.70
2023-04-12T09:13:07.456Z,2.77
2023-04-12T09:15:35.821Z,2.70
2023-04-12T09:18:09.092Z,2.73
2023-04-12T09:20:40.190Z,2.80
2023-04-12T09:23:26.673Z,2.80
2023-04-12T09:25:54.237Z,2.70
2023-04-12T09:28:26.425Z,2.80
2023-04-12T09:31:00.027Z,2.90
2023-04-12T09:33:38.242Z,2.80
2023-04-12T09:36:14.194Z,2.80
2023-04-12T09:39:01.805Z,2.80
2023-04-12T09:41:30.753Z,2.80
2023-04-12T09:44:01.727Z,2.70
2023-04-12T09:46:29.510Z,2.87
2023-04-12T09:48:59.046Z,2.80
2023-04-12T09:51:36.237Z,2.83
2023-04-12T09:54:06.756Z,2.90
2023-04-12T09:56:36.613Z,2.73
2023-04-12T09:59:07.098Z,2.73
2023-04-12T10:01:40.133Z,2.90
2023-04-12T10:04:09.166Z,2.77
2023-04-12T10:06:37.369Z,2.80
2023-04-12T10:09:06.474Z,2.77
2023-04-12T10:11:34.261Z,2.70
2023-04-12T10:14:03.202Z,2.80
2023-04-12T10:16:33.941Z,2.70
2023-04-12T10:19:04.560Z,2.80
2023-04-12T10:21:31.774Z,2.80
2023-04-12T10:23:59.515Z,2.73
2023-04-12T10:26:27.834Z,2.67
2023-04-12T10:29:36.146Z,2.80
2023-04-12T10:32:25.075Z,2.70
2023-04-12T10:35:00.469Z,2.63
2023-04-12T10:38:02.131Z,2.70
2023-04-12T10:40:32.202Z,2.60
2023-04-12T10:43:30.334Z,2.70
2023-04-12T10:46:03.956Z,2.80
2023-04-12T10:48:38.906Z,2.60
2023-04-12T10:51:13.958Z,2.77
2023-04-12T10:53:41.759Z,2.63
2023-04-12T10:56:32.431Z,2.63
2023-04-12T10:59:03.486Z,2.70
2023-04-12T11:01:42.235Z,2.60
2023-04-12T11:04:15.673Z,2.60
2023-04-12T11:06:59.778Z,2.60
2023-04-12T11:09:48.014Z,2.70
2023-04-12T11:12:27.042Z,2.60
2023-04-12T11:15:01.473Z,2.60
2023-04-12T11:17:37.990Z,2.70
2023-04-12T11:20:12.664Z,2.63
2023-04-12T11:22:41.528Z,2.70
2023-04-12T11:25:11.272Z,2.77
2023-04-12T11:27:38.812Z,2.77
2023-04-12T11:30:08.145Z,2.60
2023-04-12T11:32:41.429Z,2.63
2023-04-12T11:35:09.281Z,2.77
2023-04-12T11:37:38.868Z,2.67
2023-04-12T11:40:07.302Z,2.70
2023-04-12T11:42:34.410Z,2.67
2023-04-12T11:45:09.292Z,2.60
2023-04-12T11:47:45.550Z,2.73
2023-04-12T11:50:13.172Z,2.67
2023-04-12T11:52:41.041Z,2.70
2023-04-12T11:55:11.000Z,2.70
2023-04-12T11:57:39.493Z,2.70
2023-04-12T12:00:08.132Z,2.60
2023-04-12T12:02:52.198Z,2.70
2023-04-12T12:05:28.460Z,2.70
2023-04-12T12:07:56.279Z,2.70
2023-04-12T12:10:41.671Z,2.70
2023-04-12T12:13:15.563Z,2.80
2023-04-12T12:15:46.203Z,2.70
2023-04-12T12:18:13.810Z,2.70
2023-04-12T12:20:50.371Z,2.90
2023-04-12T12:23:32.038Z,2.63
2023-04-12T12:26:16.860Z,2.70
2023-04-12T12:28:54.541Z,2.63
2023-04-12T12:31:30.920Z,2.67
2023-04-12T12:34:01.002Z,2.73
2023-04-12T12:36:36.724Z,2.63
2023-04-12T12:39:11.896Z,2.60
2023-04-12T12:41:41.126Z,2.60
2023-04-12T12:44:08.831Z,2.63
2023-04-12T12:46:51.907Z,2.67
2023-04-12T12:49:23.049Z,2.70
2023-04-12T12:51:51.429Z,2.70
2023-04-12T12:54:32.295Z,2.67
2023-04-12T12:57:05.666Z,2.70
2023-04-12T12:59:32.786Z,2.70
2023-04-12T13:01:59.943Z,2.70
2023-04-12T13:04:27.864Z,2.60
2023-04-12T13:06:55.635Z,2.63
2023-04-12T13:09:22.669Z,2.60
2023-04-12T13:11:50.298Z,2.63
2023-04-12T13:14:18.245Z,2.70
2023-04-12T13:16:48.131Z,2.70
2023-04-12T13:19:16.072Z,2.70
2023-04-12T13:21:43.154Z,2.67
2023-04-12T13:24:10.333Z,2.57
2023-04-12T13:26:37.388Z,2.60
2023-04-12T13:29:04.468Z,2.60
2023-04-12T13:31:31.867Z,2.60
2023-04-12T13:33:59.043Z,2.60
2023-04-12T13:36:27.174Z,2.57
2023-04-12T13:38:54.633Z,2.50
2023-04-12T13:41:21.724Z,2.60
2023-04-12T13:43:48.836Z,2.57
2023-04-12T13:46:15.979Z,2.57
2023-04-12T13:48:43.248Z,2.60
2023-04-12T13:51:10.944Z,2.60
2023-04-12T13:53:38.108Z,2.60
2023-04-12T13:56:05.711Z,2.60
2023-04-12T13:58:33.149Z,2.60
2023-04-12T14:01:00.943Z,2.67
2023-04-12T14:03:28.164Z,2.60
2023-04-12T14:05:55.951Z,2.60
2023-04-12T14:08:23.760Z,2.60
2023-04-12T14:10:51.264Z,2.57
2023-04-12T14:13:18.276Z,2.60
2023-04-12T14:15:45.509Z,2.60
2023-04-12T14:18:12.693Z,2.50
2023-04-12T14:20:39.814Z,2.60
2023-04-12T14:23:08.275Z,2.53
2023-04-12T14:25:39.398Z,2.60
2023-04-12T14:28:07.249Z,2.60
2023-04-12T14:30:34.249Z,2.53
2023-04-12T14:33:01.449Z,2.67
2023-04-12T14:35:28.498Z,2.50
2023-04-12T14:37:55.774Z,2.60
2023-04-12T14:40:23.218Z,2.60
2023-04-12T14:42:50.378Z,2.70
2023-04-12T14:45:20.731Z,2.50
2023-04-12T14:47:47.869Z,2.50
2023-04-12T14:50:16.018Z,2.47
2023-04-12T14:52:43.247Z,2.50
2023-04-12T14:55:10.648Z,2.60
2023-04-12T14:57:39.454Z,2.50
2023-04-12T15:00:13.202Z,2.53
2023-04-12T15:02:41.429Z,2.43
2023-04-12T15:05:08.962Z,2.53
2023-04-12T15:07:37.253Z,2.50
2023-04-12T15:10:06.654Z,2.47
2023-04-12T15:12:33.883Z,2.60
2023-04-12T15:15:05.346Z,2.50
2023-04-12T15:17:36.345Z,2.40
2023-04-12T15:20:11.358Z,2.43
2023-04-12T15:22:42.074Z,2.43
2023-04-12T15:25:14.351Z,2.40
2023-04-12T15:27:41.753Z,2.50
2023-04-12T15:30:10.756Z,2.50
2023-04-12T15:32:39.260Z,2.50
2023-04-12T15:35:25.397Z,2.50
2023-04-12T15:37:54.823Z,2.40
2023-04-12T15:40:22.641Z,2.40
2023-04-12T15:42:49.961Z,2.47
2023-04-12T15:45:17.020Z,2.47
2023-04-12T15:47:45.938Z,2.47
2023-04-12T15:50:14.120Z,2.50
2023-04-12T15:52:44.111Z,2.50
2023-04-12T15:55:11.651Z,2.40
2023-04-12T15:57:38.708Z,2.50
2023-04-12T16:00:23.719Z,2.37
2023-04-12T16:02:53.716Z,2.50
2023-04-12T16:05:22.248Z,2.50
2023-04-12T16:07:50.997Z,2.40
2023-04-12T16:10:22.697Z,2.40
2023-04-12T16:12:52.667Z,2.40
2023-04-12T16:15:20.941Z,2.47
2023-04-12T16:17:53.028Z,2.40
2023-04-12T16:20:21.644Z,2.40
2023-04-12T16:22:56.504Z,2.50
2023-04-12T16:25:27.816Z,2.50
2023-04-12T16:27:55.989Z,2.50
2023-04-12T16:30:23.703Z,2.50
2023-04-12T16:32:51.161Z,2.43
2023-04-12T16:35:18.942Z,2.37
2023-04-12T16:37:47.552Z,2.47
2023-04-12T16:40:16.787Z,2.37
2023-04-12T16:42:45.003Z,2.47
2023-04-12T16:45:14.816Z,2.40
2023-04-12T16:47:42.173Z,2.40
2023-04-12T16:50:12.272Z,2.40
2023-04-12T16:52:40.890Z,2.40
2023-04-12T16:55:11.808Z,2.43
2023-04-12T16:57:41.793Z,2.47
2023-04-12T17:00:22.040Z,2.50
2023-04-12T17:02:52.064Z,2.40
2023-04-12T17:05:21.418Z,2.43
2023-04-12T17:07:52.622Z,2.47
2023-04-12T17:10:24.198Z,2.40
2023-04-12T17:12:55.575Z,2.43
2023-04-12T17:15:25.181Z,2.50
2023-04-12T17:18:00.623Z,2.50
2023-04-12T17:20:29.036Z,2.60
2023-04-12T17:22:57.789Z,2.50
2023-04-12T17:25:29.209Z,2.57
2023-04-12T17:27:57.793Z,2.50
2023-04-12T17:30:25.263Z,2.60
2023-04-12T17:32:53.588Z,2.57
2023-04-12T17:35:22.003Z,2.50
2023-04-12T17:37:49.222Z,2.50
2023-04-12T17:40:16.932Z,2.50
2023-04-12T17:42:44.326Z,2.50
2023-04-12T17:45:14.298Z,2.50
2023-04-12T17:47:42.526Z,2.40
2023-04-12T17:50:11.628Z,2.50
2023-04-12T17:52:39.024Z,2.50
2023-04-12T17:55:09.820Z,2.60
2023-04-12T17:57:37.494Z,2.60
2023-04-12T18:00:09.514Z,2.53
2023-04-12T18:02:41.095Z,2.50
2023-04-12T18:05:09.022Z,2.50
2023-04-12T18:07:36.080Z,2.50
2023-04-12T18:10:03.759Z,2.57
2023-04-12T18:12:31.051Z,2.50
2023-04-12T18:14:58.807Z,2.43
2023-04-12T18:17:26.852Z,2.53
2023-04-12T18:19:54.763Z,2.60
2023-04-12T18:22:22.487Z,2.67
2023-04-12T18:24:49.570Z,2.60
2023-04-12T18:27:16.997Z,2.67
2023-04-12T18:29:44.671Z,2.70
2023-04-12T18:32:12.065Z,2.60
2023-04-12T18:34:39.200Z,2.63
2023-04-12T18:37:07.411Z,2.70
2023-04-12T18:39:35.805Z,2.70
2023-04-12T18:42:03.227Z,2.60
2023-04-12T18:44:31.325Z,2.60
2023-04-12T18:46:59.091Z,2.60
2023-04-12T18:49:27.845Z,2.50
2023-04-12T18:51:58.745Z,2.53
2023-04-12T18:54:27.665Z,2.53
2023-04-12T18:56:59.132Z,2.70
2023-04-12T18:59:27.344Z,2.50
2023-04-12T19:01:54.801Z,2.60
2023-04-12T19:04:22.571Z,2.57
2023-04-12T19:06:50.527Z,2.57
2023-04-12T19:09:17.585Z,2.60
2023-04-12T19:11:45.713Z,2.60
2023-04-12T19:14:13.011Z,2.60
2023-04-12T19:16:40.794Z,2.60
2023-04-12T19:19:07.963Z,2.60
2023-04-12T19:21:35.466Z,2.67
2023-04-12T19:24:03.057Z,2.60
2023-04-12T19:26:31.677Z,2.63
2023-04-12T19:28:59.753Z,2.70
2023-04-12T19:31:27.599Z,2.50
2023-04-12T19:33:56.352Z,2.70
2023-04-12T19:36:24.365Z,2.63
2023-04-12T19:38:52.593Z,2.70
2023-04-12T19:41:20.612Z,2.63
2023-04-12T19:43:47.822Z,2.70
2023-04-12T19:46:16.223Z,2.60
2023-04-12T19:48:47.448Z,2.60
2023-04-12T19:51:15.634Z,2.50
2023-04-12T19:53:42.795Z,2.60
2023-04-12T19:56:12.650Z,2.63
2023-04-12T19:58:41.378Z,2.67
2023-04-12T20:01:09.797Z,2.67
2023-04-12T20:03:37.573Z,2.70
2023-04-12T20:06:05.399Z,2.70
2023-04-12T20:08:32.979Z,2.60
2023-04-12T20:11:01.789Z,2.60
2023-04-12T20:13:30.629Z,2.70
2023-04-12T20:16:00.715Z,2.70
2023-04-12T20:18:29.483Z,2.73
2023-04-12T20:20:59.640Z,2.70
2023-04-12T20:23:27.083Z,2.73
2023-04-12T20:25:55.348Z,2.67
2023-04-12T20:28:23.245Z,2.60
2023-04-12T20:30:50.407Z,2.67
2023-04-12T20:33:19.724Z,2.60
2023-04-12T20:35:48.888Z,2.60
2023-04-12T20:38:16.415Z,2.70
2023-04-12T20:40:45.070Z,2.60
2023-04-12T20:43:12.649Z,2.67
2023-04-12T20:45:40.143Z,2.60
2023-04-12T20:48:07.271Z,2.60
2023-04-12T20:50:34.713Z,2.70
2023-04-12T20:53:01.852Z,2.67
2023-04-12T20:55:33.890Z,2.67
2023-04-12T20:58:02.979Z,2.73
2023-04-12T21:00:31.066Z,2.63
2023-04-12T21:02:58.355Z,2.67
2023-04-12T21:05:27.181Z,2.77
2023-04-12T21:07:54.777Z,2.70
2023-04-12T21:10:22.238Z,2.60
2023-04-12T21:12:49.962Z,2.60
2023-04-12T21:15:21.698Z,2.67
2023-04-12T21:17:51.461Z,2.80
2023-04-12T21:20:19.122Z,2.70
2023-04-12T21:22:47.998Z,2.63
2023-04-12T21:25:16.676Z,2.70
2023-04-12T21:27:47.024Z,2.70
2023-04-12T21:30:15.536Z,2.60
2023-04-12T21:32:43.657Z,2.70
2023-04-12T21:35:11.445Z,2.70
2023-04-12T21:37:39.604Z,2.70
2023-04-12T21:40:09.428Z,2.67
2023-04-12T21:42:41.062Z,2.83
2023-04-12T21:45:09.663Z,2.60
2023-04-12T21:47:40.308Z,2.70
2023-04-12T21:50:10.280Z,2.70
2023-04-12T21:52:38.665Z,2.67
2023-04-12T21:55:06.435Z,2.70
2023-04-12T21:57:34.901Z,2.73
2023-04-12T22:00:05.515Z,2.67
2023-04-12T22:02:39.533Z,2.77
2023-04-12T22:05:07.576Z,2.70
2023-04-12T22:07:35.188Z,2.60
2023-04-12T22:10:02.840Z,2.67
2023-04-12T22:12:29.906Z,2.70
2023-04-12T22:14:57.545Z,2.60
2023-04-12T22:17:25.357Z,2.63
2023-04-12T22:19:56.400Z,2.60
2023-04-12T22:22:31.596Z,2.70
2023-04-12T22:25:00.405Z,2.60
2023-04-12T22:27:27.520Z,2.80
2023-04-12T22:29:54.607Z,2.70
2023-04-12T22:32:21.946Z,2.77
2023-04-12T22:34:58.041Z,2.67
2023-04-12T22:37:35.387Z,2.80
2023-04-12T22:40:04.945Z,2.70
2023-04-12T22:42:32.408Z,2.63
2023-04-12T22:44:59.830Z,2.63
2023-04-12T22:47:27.938Z,2.80
2023-04-12T22:50:00.880Z,2.73
2023-04-12T22:52:31.465Z,2.70
2023-04-12T22:54:58.968Z,2.80
2023-04-12T22:57:26.104Z,2.70
2023-04-12T22:59:53.737Z,2.70
2023-04-12T23:02:20.799Z,2.70
2023-04-12T23:04:49.110Z,2.80
2023-04-12T23:07:17.032Z,2.67
2023-04-12T23:09:45.553Z,2.80
2023-04-12T23:12:13.530Z,2.60
2023-04-12T23:14:40.732Z,2.70
2023-04-12T23:17:08.210Z,2.67
2023-04-12T23:19:35.394Z,2.70
2023-04-12T23:22:03.276Z,2.70
2023-04-12T23:24:30.843Z,2.63
2023-04-12T23:26:58.811Z,2.63
2023-04-12T23:29:25.986Z,2.70
2023-04-12T23:31:53.178Z,2.70
2023-04-12T23:34:21.971Z,2.80
2023-04-12T23:36:50.100Z,2.80
2023-04-12T23:39:18.072Z,2.70
2023-04-12T23:41:46.528Z,2.70
2023-04-12T23:44:14.291Z,2.80
2023-04-12T23:46:41.656Z,2.70
2023-04-12T23:49:09.242Z,2.80
2023-04-12T23:51:36.936Z,2.70
2023-04-12T23:54:04.090Z,2.77
2023-04-12T23:56:31.396Z,2.70
2023-04-12T23:58:58.452Z,2.70
